createdAt,value
2023-01-21T00:00:34.403Z,17.17
2023-01-21T00:06:27.905Z,17.77
2023-01-21T00:12:21.301Z,18.40
2023-01-21T00:18:16.077Z,16.90
2023-01-21T00:24:09.658Z,17.13
2023-01-21T00:30:03.120Z,17.93
2023-01-21T00:36:03.085Z,17.57
2023-01-21T00:41:56.551Z,18.27
2023-01-21T00:47:50.005Z,17.60
2023-01-21T00:53:44.836Z,17.80
2023-01-21T00:59:38.231Z,18.27
2023-01-21T01:05:31.627Z,17.30
2023-01-21T01:11:27.162Z,18.13
2023-01-21T01:17:20.618Z,17.33
2023-01-21T01:29:35.459Z,17.33
2023-01-21T01:35:29.311Z,16.83
2023-01-21T01:41:24.334Z,16.73
2023-01-21T01:47:20.072Z,16.60
2023-01-21T01:53:15.190Z,19.13
2023-01-21T01:59:09.324Z,16.30
2023-01-21T02:05:07.455Z,16.90
2023-01-21T02:11:01.426Z,18.07
2023-01-21T02:17:19.922Z,17.80
2023-01-21T02:23:20.534Z,17.27
2023-01-21T02:29:50.357Z,17.27
2023-01-21T02:35:51.478Z,17.10
2023-01-21T02:41:57.586Z,17.20
2023-01-21T02:47:56.351Z,17.73
2023-01-21T02:53:51.096Z,17.27
2023-01-21T02:59:48.353Z,16.70
2023-01-21T03:06:01.486Z,15.77
2023-01-21T03:12:17.026Z,16.53
2023-01-21T03:18:14.741Z,16.30
2023-01-21T03:24:09.716Z,16.10
2023-01-21T03:30:11.202Z,17.50
2023-01-21T03:36:09.233Z,17.00
2023-01-21T03:42:03.508Z,16.73
2023-01-21T03:48:05.321Z,15.83
2023-01-21T03:53:59.820Z,16.80
2023-01-21T03:59:53.527Z,15.97
2023-01-21T04:05:48.271Z,15.93
2023-01-21T04:11:41.841Z,15.90
2023-01-21T04:17:34.833Z,17.30
2023-01-21T04:23:29.637Z,16.30
2023-01-21T04:29:23.052Z,16.50
2023-01-21T04:35:16.297Z,16.80
2023-01-21T04:41:10.645Z,16.90
2023-01-21T04:47:03.672Z,16.30
2023-01-21T04:52:57.219Z,17.50
2023-01-21T04:58:51.598Z,17.77
2023-01-21T05:04:45.914Z,17.70
2023-01-21T05:10:39.607Z,18.57
2023-01-21T05:16:33.961Z,17.87
2023-01-21T05:22:27.004Z,19.20
2023-01-21T05:28:20.057Z,17.20
2023-01-21T05:34:14.690Z,18.27
2023-01-21T05:40:08.857Z,17.70
2023-01-21T05:46:02.376Z,18.20
2023-01-21T05:51:57.213Z,18.50
2023-01-21T05:57:50.270Z,18.23
2023-01-21T06:03:43.368Z,17.67
2023-01-21T06:09:37.815Z,16.40
2023-01-21T06:15:33.944Z,18.07
2023-01-21T06:21:27.054Z,18.30
2023-01-21T06:27:21.457Z,17.47
2023-01-21T06:33:15.185Z,17.43
2023-01-21T06:39:09.478Z,16.57
2023-01-21T06:45:04.037Z,16.97
2023-01-21T06:50:57.093Z,18.20
2023-01-21T06:56:50.652Z,17.83
2023-01-21T07:02:45.565Z,18.23
2023-01-21T07:08:39.017Z,19.47
2023-01-21T07:14:31.981Z,18.10
2023-01-21T07:20:26.475Z,16.60
2023-01-21T07:26:19.954Z,18.27
2023-01-21T07:32:13.422Z,17.30
2023-01-21T07:38:08.418Z,18.53
2023-01-21T07:44:01.851Z,17.50
2023-01-21T07:49:55.298Z,18.07
2023-01-21T07:55:50.158Z,19.47
2023-01-21T08:01:43.239Z,18.20
2023-01-21T08:07:36.821Z,20.63
2023-01-21T08:13:31.651Z,17.40
2023-01-21T08:19:25.179Z,18.10
2023-01-21T08:25:18.549Z,19.47
2023-01-21T08:31:14.412Z,20.13
2023-01-21T08:37:07.460Z,20.07
2023-01-21T08:43:01.896Z,19.97
2023-01-21T08:48:56.755Z,18.67
2023-01-21T08:54:50.849Z,19.50
2023-01-21T09:00:45.279Z,18.70
2023-01-21T09:06:40.115Z,19.30
2023-01-21T09:12:34.084Z,19.60
2023-01-21T09:18:27.284Z,20.07
2023-01-21T09:24:21.807Z,20.90
2023-01-21T09:30:15.403Z,21.00
2023-01-21T09:36:10.420Z,21.60
2023-01-21T09:42:05.383Z,20.53
2023-01-21T09:48:00.470Z,21.03
2023-01-21T09:53:56.329Z,20.30
2023-01-21T10:00:06.339Z,20.67
2023-01-21T10:06:21.941Z,21.37
2023-01-21T10:12:30.120Z,18.60
2023-01-21T10:18:30.903Z,18.97
2023-01-21T10:24:28.547Z,19.93
2023-01-21T10:30:25.344Z,21.73
2023-01-21T10:36:41.947Z,18.53
2023-01-21T10:42:58.731Z,18.30
2023-01-21T10:48:58.504Z,18.10
2023-01-21T10:55:00.229Z,17.00
2023-01-21T11:00:55.154Z,16.50
2023-01-21T11:06:55.448Z,16.10
2023-01-21T11:12:50.100Z,14.33
2023-01-21T11:18:44.342Z,13.23
2023-01-21T11:24:44.249Z,12.63
2023-01-21T11:30:50.496Z,13.03
2023-01-21T11:37:02.648Z,13.07
2023-01-21T11:42:58.014Z,13.43
2023-01-21T11:48:55.910Z,12.17
2023-01-21T11:54:49.976Z,13.77
2023-01-21T12:00:47.897Z,11.87
2023-01-21T12:06:48.806Z,13.50
2023-01-21T12:12:57.553Z,14.30
2023-01-21T12:19:09.077Z,11.90
2023-01-21T12:25:21.907Z,13.50
2023-01-21T12:31:24.262Z,13.40
2023-01-21T12:37:23.062Z,12.80
2023-01-21T12:43:23.645Z,14.47
2023-01-21T12:49:22.689Z,11.67
2023-01-21T12:55:20.928Z,12.53
2023-01-21T13:01:24.055Z,10.87
2023-01-21T13:07:26.880Z,12.10
2023-01-21T13:13:24.746Z,11.60
2023-01-21T13:19:19.601Z,11.40
2023-01-21T13:25:26.866Z,12.70
2023-01-21T13:31:27.444Z,11.27
2023-01-21T13:37:30.517Z,11.63
2023-01-21T13:43:54.927Z,10.63
2023-01-21T13:50:15.991Z,10.80
2023-01-21T13:56:37.127Z,12.87
2023-01-21T14:02:37.503Z,11.17
2023-01-21T14:08:37.839Z,10.83
2023-01-21T14:15:12.531Z,9.80
2023-01-21T14:21:27.191Z,8.73
2023-01-21T14:27:28.704Z,7.67
2023-01-21T14:33:24.705Z,7.30
2023-01-21T14:39:33.224Z,7.00
2023-01-21T14:45:54.806Z,6.47
2023-01-21T14:51:52.290Z,5.57
2023-01-21T14:57:47.312Z,5.80
2023-01-21T15:03:50.195Z,6.10
2023-01-21T15:09:47.647Z,5.30
2023-01-21T15:16:06.631Z,5.50
2023-01-21T15:22:41.313Z,5.20
2023-01-21T15:28:42.462Z,5.70
2023-01-21T15:34:38.002Z,5.60
2023-01-21T15:40:40.048Z,5.50
2023-01-21T15:46:43.186Z,5.90
2023-01-21T15:52:49.037Z,4.67
2023-01-21T15:58:53.517Z,5.20
2023-01-21T16:04:58.930Z,5.87
2023-01-21T16:11:07.154Z,5.87
2023-01-21T16:17:12.335Z,5.63
2023-01-21T16:23:09.205Z,6.13
2023-01-21T16:29:04.449Z,6.00
2023-01-21T16:34:57.958Z,5.93
2023-01-21T16:40:52.441Z,5.77
2023-01-21T16:46:47.313Z,5.70
2023-01-21T16:52:40.848Z,7.60
2023-01-21T16:58:36.033Z,6.07
2023-01-21T17:04:31.739Z,6.47
2023-01-21T17:10:29.893Z,6.40
2023-01-21T17:16:29.704Z,7.20
2023-01-21T17:22:26.028Z,6.90
2023-01-21T17:28:26.268Z,7.40
2023-01-21T17:34:22.018Z,7.07
2023-01-21T17:40:32.000Z,7.73
2023-01-21T17:46:25.917Z,8.77
2023-01-21T17:52:20.977Z,8.40
2023-01-21T17:58:37.097Z,7.53
2023-01-21T18:04:30.851Z,7.50
2023-01-21T18:10:27.815Z,7.27
2023-01-21T18:16:22.689Z,6.60
2023-01-21T18:22:26.088Z,6.83
2023-01-21T18:28:21.335Z,7.27
2023-01-21T18:34:15.847Z,6.13
2023-01-21T18:40:16.158Z,6.17
2023-01-21T18:46:12.870Z,6.73
2023-01-21T18:52:07.839Z,7.03
2023-01-21T18:58:02.419Z,6.40
2023-01-21T19:03:56.077Z,6.50
2023-01-21T19:09:51.622Z,6.33
2023-01-21T19:15:45.275Z,6.37
2023-01-21T19:21:39.034Z,6.00
2023-01-21T19:27:36.148Z,6.10
2023-01-21T19:33:29.540Z,5.80
2023-01-21T19:39:25.257Z,6.00
2023-01-21T19:45:21.314Z,5.37
2023-01-21T19:51:14.326Z,5.70
2023-01-21T19:57:10.509Z,5.50
2023-01-21T20:03:04.969Z,4.97
2023-01-21T20:09:00.322Z,5.50
2023-01-21T20:14:53.717Z,6.63
2023-01-21T20:20:48.068Z,5.70
2023-01-21T20:26:42.167Z,5.37
2023-01-21T20:32:35.587Z,6.20
2023-01-21T20:38:33.102Z,6.40
2023-01-21T20:44:26.618Z,6.90
2023-01-21T20:50:21.743Z,6.00
2023-01-21T20:56:23.026Z,6.73
2023-01-21T21:02:16.328Z,7.30
2023-01-21T21:08:14.884Z,6.50
2023-01-21T21:14:09.665Z,6.13
2023-01-21T21:20:03.126Z,6.47
2023-01-21T21:25:56.401Z,5.87
2023-01-21T21:31:52.419Z,7.70
2023-01-21T21:37:45.886Z,6.20
2023-01-21T21:43:41.971Z,6.33
2023-01-21T21:49:36.804Z,5.70
2023-01-21T21:55:30.208Z,5.47
2023-01-21T22:01:25.347Z,6.27
2023-01-21T22:07:20.250Z,6.10
2023-01-21T22:13:13.702Z,5.33
2023-01-21T22:19:07.214Z,5.73
2023-01-21T22:25:02.023Z,7.30
2023-01-21T22:30:55.688Z,6.10
2023-01-21T22:36:49.141Z,5.30
2023-01-21T22:42:43.886Z,5.83
2023-01-21T22:48:36.949Z,4.90
2023-01-21T22:54:30.373Z,6.13
2023-01-21T23:00:37.586Z,5.90
2023-01-21T23:06:30.587Z,4.93
2023-01-21T23:12:24.339Z,5.10
2023-01-21T23:18:19.119Z,6.10
2023-01-21T23:24:12.082Z,5.57
2023-01-21T23:30:05.985Z,5.70
2023-01-21T23:36:01.403Z,6.13
2023-01-21T23:41:55.328Z,6.30
2023-01-21T23:47:48.972Z,5.43
2023-01-21T23:53:43.527Z,5.60
2023-01-21T23:59:36.971Z,5.17
